(°C)
10°
11°
(°C)
N
NNE
NE
NE
NE
ENE
ENE
(km/h)
4-15
4-16
5-16
6-19
7-21
8-23
10-23
(mm)
0
0
0
0
0
0
0
(%)
2
1
1
1
0
0
0

Elevazione del sole

/ -30.7°
sun-icon
UV 6
05:29
19:46
Luna calante (313°)
04:00
15:49

METAR per Barnstable (KHYA)

Ora Condizioni Temperatura/
Punto di rugiada
Vento Visibilità Tempo Nuvole Pressione Cambiamento Grezzo
5.6°C / 3.9°C variable 0kt >10km - 1013 - KHYA 070456Z AUTO 00000KT 10SM 06/04 A2992 RMK AO2 SLP133 T00560039 401720056 $
6.7°C / 5°C variable 0kt >10km - 1013 - KHYA 070356Z AUTO 00000KT 10SM 07/05 A2993 RMK AO2 SLP135 T00670050 $
VFR 7.2°C / 5°C variable 0kt >10km - Clear 1013 - KHYA 070256Z AUTO 00000KT 10SM CLR 07/05 A2992 RMK AO2 SLP132 T00720050 50015
VFR 9.4°C / 6.1°C variable 0kt >10km - Clear 1013 - KHYA 070156Z 00000KT 10SM CLR 09/06 A2992 RMK AO2 SLP133 T00940061
VFR 10°C / 6.1°C variable 0kt >10km - Clear 1012 - KHYA 070056Z 00000KT 10SM CLR 10/06 A2990 RMK AO2 SLP124 T01000061
VFR 12.2°C / 5.6°C variable 0kt >10km - Clear 1011 - KHYA 062356Z 00000KT 10SM CLR 12/06 A2987 RMK AO2 SLP117 T01220056 10172 20122 51016
VFR 13.9°C / 5.6°C variable 3kt >10km - Clear 1011 - KHYA 062256Z VRB03KT 10SM CLR 14/06 A2987 RMK AO2 SLP115 T01390056
VFR 17.2°C / 0.6°C variable 3kt >10km - Clear 1011 - KHYA 062156Z VRB03KT 10SM CLR 17/01 A2985 RMK AO2 SLP110 T01720006
VFR 17.2°C / 1.7°C 10º 9kt >10km - Clear 1010 - KHYA 062056Z 01009KT 10SM CLR 17/02 A2983 RMK AO2 SLP101 T01720017 53003
VFR 16.7°C / 1.7°C 10º 7kt >10km - Clear 1009 - KHYA 061956Z 01007KT 10SM CLR 17/02 A2981 RMK AO2 SLP096 T01670017
VFR 16.1°C / 2.8°C 360º 13kt Gust 18kt >10km - Clear 1009 - KHYA 061856Z 36013G18KT 10SM CLR 16/03 A2981 RMK AO2 SLP096 T01610028
VFR 16.1°C / 3.9°C 360º 10kt Gust 21kt >10km - Clear 1009 - KHYA 061756Z 36010G21KT 10SM CLR 16/04 A2982 RMK AO2 SLP098 T01610039 10167 20128 53005
VFR 15.6°C / 4.4°C 350º 13kt Gust 20kt >10km - Few Clouds 5500ft 1009 - KHYA 061656Z 35013G20KT 10SM FEW055 16/04 A2981 RMK AO2 SLP096 T01560044
VFR 16.1°C / 5°C 330º 13kt Gust 20kt >10km - Clear 1009 - KHYA 061556Z 33013G20KT 10SM CLR 16/05 A2981 RMK AO2 SLP094 T01610050
VFR 15.6°C / 5.6°C 340º 14kt Gust 18kt >10km - Clear 1009 - KHYA 061456Z 34014G18KT 10SM CLR 16/06 A2980 RMK AO2 SLP092 T01560056 51014
VFR 15°C / 6.1°C 330º 13kt Gust 19kt >10km - Clear 1008 - KHYA 061356Z 33013G19KT 10SM CLR 15/06 A2979 RMK AO2 SLP089 T01500061
VFR 13.9°C / 6.7°C 320º variable 280º to 350º 9kt Gust 21kt >10km - Clear 1008 - KHYA 061256Z 32009G21KT 280V350 10SM CLR 14/07 A2978 RMK AO2 SLP083 T01390067
VFR 12.8°C / 7.2°C 310º 11kt Gust 18kt >10km - Clear 1007 - KHYA 061156Z 31011G18KT 10SM CLR 13/07 A2976 RMK AO2 SLP078 70016 T01280072 10128 20089 51017
VFR 11.7°C / 8.9°C 300º 8kt >10km - Clear 1007 - KHYA 061056Z 30008KT 10SM CLR 12/09 A2975 RMK AO2 SLP074 T01170089
VFR 11.1°C / 8.9°C 300º 6kt >10km - Broken Clouds 7000ft 1006 - KHYA 060956Z 30006KT 10SM BKN070 11/09 A2973 RMK AO2 SLP067 T01110089
VFR 10.6°C / 8.9°C variable 3kt >10km - Overcast 6500ft 1006 - KHYA 060856Z AUTO VRB03KT 10SM OVC065 11/09 A2971 RMK AO2 SLP061 T01060089 53004
VFR 9.4°C / 8.3°C variable 0kt >10km - Scattered Clouds 1400ft 1005 - KHYA 060756Z AUTO 00000KT 10SM SCT014 OVC060 09/08 A2970 RMK AO2 SLP058 T00940083
MVFR 9.4°C / 7.8°C 280º 4kt >10km - Broken Clouds 1400ft - KHYA 060717Z AUTO 28004KT 10SM BKN014 OVC046 09/08 A2970 RMK AO2 T00940078
VFR 8.9°C / 7.8°C 280º 3kt >10km - Overcast 4100ft 1005 - KHYA 060656Z AUTO 28003KT 10SM OVC041 09/08 A2970 RMK AO2 SLP057 T00890078

5.6°C / 3.9°C

[Più]
Vento variable 0kt
Visibilità >10km
Tempo -
Nuvole
Pressione 1013
Cambiamento -
Grezzo KHYA 070456Z AUTO 00000KT 10SM 06/04 A2992 RMK AO2 SLP133 T00560039 401720056 $

6.7°C / 5°C

[Più]
Vento variable 0kt
Visibilità >10km
Tempo -
Nuvole
Pressione 1013
Cambiamento -
Grezzo KHYA 070356Z AUTO 00000KT 10SM 07/05 A2993 RMK AO2 SLP135 T00670050 $

VFR

7.2°C / 5°C

[Più]
Vento variable 0kt
Visibilità >10km
Tempo -
Nuvole Clear
Pressione 1013
Cambiamento -
Grezzo KHYA 070256Z AUTO 00000KT 10SM CLR 07/05 A2992 RMK AO2 SLP132 T00720050 50015

VFR

9.4°C / 6.1°C

[Più]
Vento variable 0kt
Visibilità >10km
Tempo -
Nuvole Clear
Pressione 1013
Cambiamento -
Grezzo KHYA 070156Z 00000KT 10SM CLR 09/06 A2992 RMK AO2 SLP133 T00940061

VFR

10°C / 6.1°C

[Più]
Vento variable 0kt
Visibilità >10km
Tempo -
Nuvole Clear
Pressione 1012
Cambiamento -
Grezzo KHYA 070056Z 00000KT 10SM CLR 10/06 A2990 RMK AO2 SLP124 T01000061

VFR

12.2°C / 5.6°C

[Più]
Vento variable 0kt
Visibilità >10km
Tempo -
Nuvole Clear
Pressione 1011
Cambiamento -
Grezzo KHYA 062356Z 00000KT 10SM CLR 12/06 A2987 RMK AO2 SLP117 T01220056 10172 20122 51016

VFR

13.9°C / 5.6°C

[Più]
Vento variable 3kt
Visibilità >10km
Tempo -
Nuvole Clear
Pressione 1011
Cambiamento -
Grezzo KHYA 062256Z VRB03KT 10SM CLR 14/06 A2987 RMK AO2 SLP115 T01390056

VFR

17.2°C / 0.6°C

[Più]
Vento variable 3kt
Visibilità >10km
Tempo -
Nuvole Clear
Pressione 1011
Cambiamento -
Grezzo KHYA 062156Z VRB03KT 10SM CLR 17/01 A2985 RMK AO2 SLP110 T01720006

VFR

17.2°C / 1.7°C

[Più]
Vento 10º 9kt
Visibilità >10km
Tempo -
Nuvole Clear
Pressione 1010
Cambiamento -
Grezzo KHYA 062056Z 01009KT 10SM CLR 17/02 A2983 RMK AO2 SLP101 T01720017 53003

VFR

16.7°C / 1.7°C

[Più]
Vento 10º 7kt
Visibilità >10km
Tempo -
Nuvole Clear
Pressione 1009
Cambiamento -
Grezzo KHYA 061956Z 01007KT 10SM CLR 17/02 A2981 RMK AO2 SLP096 T01670017

VFR

16.1°C / 2.8°C

[Più]
Vento 360º 13kt Gust 18kt
Visibilità >10km
Tempo -
Nuvole Clear
Pressione 1009
Cambiamento -
Grezzo KHYA 061856Z 36013G18KT 10SM CLR 16/03 A2981 RMK AO2 SLP096 T01610028

VFR

16.1°C / 3.9°C

[Più]
Vento 360º 10kt Gust 21kt
Visibilità >10km
Tempo -
Nuvole Clear
Pressione 1009
Cambiamento -
Grezzo KHYA 061756Z 36010G21KT 10SM CLR 16/04 A2982 RMK AO2 SLP098 T01610039 10167 20128 53005

VFR

15.6°C / 4.4°C

[Più]
Vento 350º 13kt Gust 20kt
Visibilità >10km
Tempo -
Nuvole Few Clouds 5500ft
Pressione 1009
Cambiamento -
Grezzo KHYA 061656Z 35013G20KT 10SM FEW055 16/04 A2981 RMK AO2 SLP096 T01560044

VFR

16.1°C / 5°C

[Più]
Vento 330º 13kt Gust 20kt
Visibilità >10km
Tempo -
Nuvole Clear
Pressione 1009
Cambiamento -
Grezzo KHYA 061556Z 33013G20KT 10SM CLR 16/05 A2981 RMK AO2 SLP094 T01610050

VFR

15.6°C / 5.6°C

[Più]
Vento 340º 14kt Gust 18kt
Visibilità >10km
Tempo -
Nuvole Clear
Pressione 1009
Cambiamento -
Grezzo KHYA 061456Z 34014G18KT 10SM CLR 16/06 A2980 RMK AO2 SLP092 T01560056 51014

VFR

15°C / 6.1°C

[Più]
Vento 330º 13kt Gust 19kt
Visibilità >10km
Tempo -
Nuvole Clear
Pressione 1008
Cambiamento -
Grezzo KHYA 061356Z 33013G19KT 10SM CLR 15/06 A2979 RMK AO2 SLP089 T01500061

VFR

13.9°C / 6.7°C

[Più]
Vento 320º variable 280º to 350º 9kt Gust 21kt
Visibilità >10km
Tempo -
Nuvole Clear
Pressione 1008
Cambiamento -
Grezzo KHYA 061256Z 32009G21KT 280V350 10SM CLR 14/07 A2978 RMK AO2 SLP083 T01390067

VFR

12.8°C / 7.2°C

[Più]
Vento 310º 11kt Gust 18kt
Visibilità >10km
Tempo -
Nuvole Clear
Pressione 1007
Cambiamento -
Grezzo KHYA 061156Z 31011G18KT 10SM CLR 13/07 A2976 RMK AO2 SLP078 70016 T01280072 10128 20089 51017

VFR

11.7°C / 8.9°C

[Più]
Vento 300º 8kt
Visibilità >10km
Tempo -
Nuvole Clear
Pressione 1007
Cambiamento -
Grezzo KHYA 061056Z 30008KT 10SM CLR 12/09 A2975 RMK AO2 SLP074 T01170089

VFR

11.1°C / 8.9°C

[Più]
Vento 300º 6kt
Visibilità >10km
Tempo -
Nuvole Broken Clouds 7000ft
Pressione 1006
Cambiamento -
Grezzo KHYA 060956Z 30006KT 10SM BKN070 11/09 A2973 RMK AO2 SLP067 T01110089

VFR

10.6°C / 8.9°C

[Più]
Vento variable 3kt
Visibilità >10km
Tempo -
Nuvole Overcast 6500ft
Pressione 1006
Cambiamento -
Grezzo KHYA 060856Z AUTO VRB03KT 10SM OVC065 11/09 A2971 RMK AO2 SLP061 T01060089 53004

VFR

9.4°C / 8.3°C

[Più]
Vento variable 0kt
Visibilità >10km
Tempo -
Nuvole Scattered Clouds 1400ft
Pressione 1005
Cambiamento -
Grezzo KHYA 060756Z AUTO 00000KT 10SM SCT014 OVC060 09/08 A2970 RMK AO2 SLP058 T00940083

MVFR

9.4°C / 7.8°C

[Più]
Vento 280º 4kt
Visibilità >10km
Tempo -
Nuvole Broken Clouds 1400ft
Pressione
Cambiamento -
Grezzo KHYA 060717Z AUTO 28004KT 10SM BKN014 OVC046 09/08 A2970 RMK AO2 T00940078

VFR

8.9°C / 7.8°C

[Più]
Vento 280º 3kt
Visibilità >10km
Tempo -
Nuvole Overcast 4100ft
Pressione 1005
Cambiamento -
Grezzo KHYA 060656Z AUTO 28003KT 10SM OVC041 09/08 A2970 RMK AO2 SLP057 T00890078

TAF per Barnstable (KHYA)

From till


From till Wind variable 0kt. Visibility 10km or more. Overcast 20000ft.
From till Wind 60º 7kt. Visibility 10km or more. Scattered Clouds 10000ft. Overcast 20000ft.
From till Wind 70º 7kt. Visibility 10km or more. Scattered Clouds 25000ft.

Grezzo: KHYA 070305Z 0703/0724 00000KT P6SM OVC200 FM070700 06007KT P6SM SCT100 OVC200 FM071400 07007KT P6SM SCT250

Immagine satellitare per Barnstable, Stati Uniti

Il segnaposto è situato a Barnstable. [Più]

L'immagine satellitare in tempo reale combina la luce visibile durante il giorno con la radiazione infrarossa durante la notte. Di notte l'immagine non è scura poiché i raggi infrarossi possono rilevare differenze di temperatura. Purtroppo, le nuvole basse e la nebbia sono difficili da distinguere dalla temperatura del suolo e possono pertanto essere quasi invisibili durante la notte. Le immagini satellitari Meteosat per l'Europa vengono aggiornate in tempo reale ogni 5 minuti. Le immagini GOES-16 / GOES-17 (Nord e Sud America) e Himawari (Asia) vengono aggiornate ogni 10 minuti.

Radar e nowcasting per Barnstable

Il segnaposto è situato a Barnstable. Questa animazione mostra il radar delle precipitazioni per l'ultima ora, nonché una previsione 1h. Il radar può non individuare correttamente pioviggine o nevischio. L’intensità delle precipitazioni è associata a una scala di colori, dal blu chiaro fino al viola scuro.